createdAt,value
2022-11-27T00:01:36.626Z,47.40
2022-11-27T00:04:05.078Z,59.00
2022-11-27T00:06:34.449Z,49.67
2022-11-27T00:09:06.706Z,53.33
2022-11-27T00:11:35.737Z,52.33
2022-11-27T00:14:03.948Z,52.70
2022-11-27T00:16:32.411Z,51.50
2022-11-27T00:19:00.752Z,60.17
2022-11-27T00:21:31.370Z,50.10
2022-11-27T00:24:02.793Z,49.40
2022-11-27T00:26:37.882Z,53.53
2022-11-27T00:29:07.831Z,57.67
2022-11-27T00:31:37.585Z,49.53
2022-11-27T00:34:08.302Z,63.07
2022-11-27T00:36:36.969Z,62.77
2022-11-27T00:39:05.526Z,50.97
2022-11-27T00:41:35.665Z,64.43
2022-11-27T00:44:03.800Z,58.03
2022-11-27T00:46:34.115Z,59.70
2022-11-27T00:49:05.079Z,58.40
2022-11-27T00:51:33.922Z,62.03
2022-11-27T00:54:02.005Z,54.07
2022-11-27T00:56:32.152Z,64.50
2022-11-27T00:59:01.870Z,54.90
2022-11-27T01:01:32.205Z,47.63
2022-11-27T01:04:01.818Z,59.87
2022-11-27T01:06:31.429Z,58.30
2022-11-27T01:09:00.425Z,59.33
2022-11-27T01:11:30.923Z,62.53
2022-11-27T01:14:03.384Z,63.13
2022-11-27T01:16:33.334Z,64.80
2022-11-27T01:19:02.790Z,62.07
2022-11-27T01:21:32.800Z,59.03
2022-11-27T01:24:01.795Z,57.27
2022-11-27T01:26:30.581Z,65.90
2022-11-27T01:28:59.723Z,61.13
2022-11-27T01:31:31.609Z,64.57
2022-11-27T01:34:01.378Z,66.97
2022-11-27T01:36:30.521Z,57.53
2022-11-27T01:38:58.650Z,73.73
2022-11-27T01:41:29.389Z,68.27
2022-11-27T01:43:59.304Z,61.40
2022-11-27T01:46:38.401Z,72.17
2022-11-27T01:49:24.813Z,67.67
2022-11-27T01:51:57.137Z,68.43
2022-11-27T01:54:28.018Z,66.97
2022-11-27T01:57:00.580Z,74.23
2022-11-27T01:59:28.704Z,71.57
2022-11-27T02:01:58.432Z,65.50
2022-11-27T02:04:26.525Z,77.53
2022-11-27T02:06:56.496Z,73.07
2022-11-27T02:09:24.622Z,65.63
2022-11-27T02:11:58.940Z,74.00
2022-11-27T02:14:33.198Z,77.77
2022-11-27T02:17:09.652Z,76.03
2022-11-27T02:19:52.441Z,69.07
2022-11-27T02:22:33.688Z,68.13
2022-11-27T02:25:08.541Z,70.90
2022-11-27T02:28:09.423Z,76.57
2022-11-27T02:30:46.584Z,87.10
2022-11-27T02:33:21.005Z,78.93
2022-11-27T02:35:52.997Z,86.10
2022-11-27T02:38:28.636Z,73.93
2022-11-27T02:41:00.502Z,82.13
2022-11-27T02:43:34.477Z,89.70
2022-11-27T02:46:06.143Z,72.13
2022-11-27T02:48:37.418Z,84.57
2022-11-27T02:51:07.890Z,87.53
2022-11-27T02:53:39.173Z,85.13
2022-11-27T02:56:11.179Z,77.93
2022-11-27T02:58:41.037Z,70.40
2022-11-27T03:01:13.135Z,70.00
2022-11-27T03:03:46.851Z,72.37
2022-11-27T03:06:21.064Z,75.93
2022-11-27T03:08:54.895Z,67.50
2022-11-27T03:11:24.550Z,67.13
2022-11-27T03:13:56.953Z,72.13
2022-11-27T03:16:35.733Z,67.43
2022-11-27T03:19:12.758Z,75.07
2022-11-27T03:21:43.368Z,64.47
2022-11-27T03:24:13.306Z,70.13
2022-11-27T03:26:42.029Z,66.40
2022-11-27T03:29:13.398Z,65.50
2022-11-27T03:31:42.867Z,74.57
2022-11-27T03:34:11.870Z,61.57
2022-11-27T03:36:39.862Z,70.93
2022-11-27T03:39:08.308Z,71.50
2022-11-27T03:41:43.354Z,73.43
2022-11-27T03:44:23.708Z,69.07
2022-11-27T03:47:04.108Z,68.20
2022-11-27T03:49:43.932Z,66.00
2022-11-27T03:52:21.327Z,72.83
2022-11-27T03:54:56.937Z,66.33
2022-11-27T03:57:33.185Z,69.20
2022-11-27T04:00:07.389Z,67.57
2022-11-27T04:02:44.151Z,71.97
2022-11-27T04:05:13.699Z,74.07
2022-11-27T04:07:42.369Z,77.30
2022-11-27T04:10:12.023Z,78.67
2022-11-27T04:12:40.180Z,67.20
2022-11-27T04:15:09.249Z,80.00
2022-11-27T04:17:37.233Z,70.77
2022-11-27T04:20:08.271Z,67.33
2022-11-27T04:22:36.428Z,79.00
2022-11-27T04:25:05.355Z,68.07
2022-11-27T04:27:33.422Z,63.93
2022-11-27T04:30:01.664Z,68.57
2022-11-27T04:32:29.794Z,67.30
2022-11-27T04:34:58.193Z,68.40
2022-11-27T04:37:27.577Z,70.83
2022-11-27T04:39:55.865Z,70.83
2022-11-27T04:42:23.954Z,64.87
2022-11-27T04:44:52.197Z,64.40
2022-11-27T04:47:20.216Z,60.60
2022-11-27T04:49:48.758Z,61.30
2022-11-27T04:52:16.742Z,56.93
2022-11-27T04:54:46.419Z,58.93
2022-11-27T04:57:14.459Z,61.70
2022-11-27T04:59:42.753Z,57.83
2022-11-27T05:02:10.943Z,65.77
2022-11-27T05:04:39.531Z,61.23
2022-11-27T05:07:08.032Z,56.10
2022-11-27T05:09:36.327Z,62.63
2022-11-27T05:12:06.263Z,53.57
2022-11-27T05:14:35.121Z,58.67
2022-11-27T05:17:03.432Z,69.07
2022-11-27T05:19:32.770Z,55.43
2022-11-27T05:22:00.854Z,55.23
2022-11-27T05:24:30.172Z,57.27
2022-11-27T05:26:58.744Z,53.63
2022-11-27T05:29:28.575Z,53.70
2022-11-27T05:31:56.666Z,56.93
2022-11-27T05:34:25.346Z,53.90
2022-11-27T05:36:53.359Z,54.67
2022-11-27T05:39:22.082Z,58.37
2022-11-27T05:41:50.137Z,61.30
2022-11-27T05:44:18.459Z,58.63
2022-11-27T05:46:48.096Z,53.90
2022-11-27T05:49:17.324Z,56.63
2022-11-27T05:51:50.946Z,55.57
2022-11-27T05:54:20.453Z,65.87
2022-11-27T05:56:48.567Z,55.93
2022-11-27T05:59:16.977Z,54.87
2022-11-27T06:01:45.106Z,56.50
2022-11-27T06:04:15.007Z,63.30
2022-11-27T06:06:43.055Z,52.87
2022-11-27T06:09:13.379Z,56.63
2022-11-27T06:11:42.088Z,55.63
2022-11-27T06:14:11.712Z,59.00
2022-11-27T06:16:39.927Z,46.43
2022-11-27T06:19:09.111Z,66.77
2022-11-27T06:21:38.520Z,53.73
2022-11-27T06:24:07.459Z,55.67
2022-11-27T06:26:35.823Z,61.53
2022-11-27T06:29:04.780Z,55.87
2022-11-27T06:31:34.598Z,51.03
2022-11-27T06:34:03.948Z,58.73
2022-11-27T06:36:34.137Z,60.63
2022-11-27T06:39:05.726Z,57.73
2022-11-27T06:41:34.242Z,75.63
2022-11-27T06:44:02.918Z,63.40
2022-11-27T06:46:31.561Z,70.07
2022-11-27T06:49:00.390Z,75.50
2022-11-27T06:51:30.719Z,62.17
2022-11-27T06:54:03.394Z,59.33
2022-11-27T06:56:32.713Z,65.27
2022-11-27T06:59:02.420Z,55.57
2022-11-27T07:01:32.467Z,58.70
2022-11-27T07:04:01.253Z,61.87
2022-11-27T07:06:29.635Z,86.13
2022-11-27T07:08:58.053Z,59.33
2022-11-27T07:11:29.726Z,70.10
2022-11-27T07:13:59.604Z,60.57
2022-11-27T07:16:29.202Z,61.67
2022-11-27T07:18:59.957Z,61.67
2022-11-27T07:21:28.448Z,64.23
2022-11-27T07:23:57.669Z,67.30
2022-11-27T07:26:28.842Z,58.97
2022-11-27T07:28:57.764Z,58.53
2022-11-27T07:31:28.755Z,69.50
2022-11-27T07:33:57.931Z,62.60
2022-11-27T07:36:28.767Z,60.33
2022-11-27T07:38:57.959Z,62.93
2022-11-27T07:41:33.562Z,60.63
2022-11-27T07:44:02.578Z,54.77
2022-11-27T07:46:31.119Z,58.63
2022-11-27T07:49:00.473Z,57.60
2022-11-27T07:51:29.612Z,52.57
2022-11-27T07:53:57.984Z,59.63
2022-11-27T07:56:27.883Z,54.57
2022-11-27T07:58:57.559Z,60.17
2022-11-27T08:01:26.091Z,58.17
2022-11-27T08:03:54.639Z,59.20
2022-11-27T08:06:25.050Z,54.63
2022-11-27T08:08:55.957Z,50.00
2022-11-27T08:11:25.625Z,57.47
2022-11-27T08:13:58.939Z,57.43
2022-11-27T08:16:27.448Z,64.47
2022-11-27T08:18:56.326Z,56.33
2022-11-27T08:21:24.944Z,54.60
2022-11-27T08:23:53.631Z,52.57
2022-11-27T08:26:21.902Z,58.53
2022-11-27T08:28:53.397Z,53.90
2022-11-27T08:31:23.224Z,56.40
2022-11-27T08:33:51.701Z,50.87
2022-11-27T08:36:19.792Z,54.13
2022-11-27T08:38:48.142Z,55.20
2022-11-27T08:41:16.175Z,54.07
2022-11-27T08:43:44.822Z,58.40
2022-11-27T08:46:13.140Z,60.43
2022-11-27T08:48:43.455Z,57.43
2022-11-27T08:51:13.019Z,54.00
2022-11-27T08:53:41.838Z,62.93
2022-11-27T08:56:12.852Z,51.87
2022-11-27T08:58:41.642Z,51.50
2022-11-27T09:01:11.676Z,53.17
2022-11-27T09:03:40.279Z,54.00
2022-11-27T09:06:12.205Z,43.67
2022-11-27T09:08:41.961Z,52.60
2022-11-27T09:11:11.440Z,55.67
2022-11-27T09:13:41.037Z,40.27
2022-11-27T09:16:11.616Z,45.57
2022-11-27T09:18:40.726Z,48.03
2022-11-27T09:21:12.415Z,42.67
2022-11-27T09:23:41.342Z,39.13
2022-11-27T09:26:11.194Z,43.07
2022-11-27T09:28:40.596Z,43.67
2022-11-27T09:31:10.557Z,37.83
2022-11-27T09:33:39.930Z,40.77
2022-11-27T09:36:11.186Z,36.10
2022-11-27T09:38:40.021Z,38.40
2022-11-27T09:41:23.232Z,47.67
2022-11-27T09:43:56.843Z,39.00
2022-11-27T09:46:32.049Z,48.23
2022-11-27T09:49:03.851Z,46.13
2022-11-27T09:51:38.273Z,43.70
2022-11-27T09:54:16.569Z,43.03
2022-11-27T09:56:49.920Z,37.23
2022-11-27T09:59:20.135Z,44.27
2022-11-27T10:01:51.072Z,38.17
2022-11-27T10:04:21.441Z,38.47
2022-11-27T10:07:07.534Z,39.97
2022-11-27T10:09:44.856Z,35.33
2022-11-27T10:12:22.483Z,36.87
2022-11-27T10:15:01.114Z,32.07
2022-11-27T10:17:35.294Z,31.17
2022-11-27T10:20:16.983Z,31.47
2022-11-27T10:22:57.041Z,38.60
2022-11-27T10:25:30.254Z,32.43
2022-11-27T10:28:13.566Z,28.53
2022-11-27T10:30:50.696Z,33.83
2022-11-27T10:33:24.805Z,30.93
2022-11-27T10:35:53.960Z,24.40
2022-11-27T10:38:27.057Z,22.40
2022-11-27T10:41:04.806Z,29.23
2022-11-27T10:43:36.364Z,27.33
2022-11-27T10:46:13.744Z,32.03
2022-11-27T10:48:42.138Z,28.93
2022-11-27T10:51:15.330Z,26.77
2022-11-27T10:53:47.278Z,34.67
2022-11-27T10:56:35.545Z,23.47
2022-11-27T10:59:06.998Z,33.73
2022-11-27T11:01:45.245Z,23.30
2022-11-27T11:04:36.411Z,24.87
2022-11-27T11:07:25.757Z,30.23
2022-11-27T11:09:56.010Z,26.57
2022-11-27T11:12:25.085Z,28.70
2022-11-27T11:14:54.824Z,23.97
2022-11-27T11:17:28.510Z,29.23
2022-11-27T11:19:56.755Z,21.50
2022-11-27T11:22:29.756Z,25.07
2022-11-27T11:24:59.236Z,23.17
2022-11-27T11:27:32.588Z,24.13
2022-11-27T11:30:03.482Z,26.67
2022-11-27T11:32:36.012Z,25.90
2022-11-27T11:35:08.494Z,20.07
2022-11-27T11:37:41.035Z,24.30
2022-11-27T11:40:23.817Z,26.87
2022-11-27T11:42:54.678Z,24.43
2022-11-27T11:45:23.481Z,22.20
2022-11-27T11:47:53.493Z,22.23
2022-11-27T11:50:31.174Z,23.70
2022-11-27T11:53:05.340Z,25.33
2022-11-27T11:55:40.855Z,28.27
2022-11-27T11:58:36.467Z,27.00
2022-11-27T12:01:26.987Z,23.40
2022-11-27T12:04:15.745Z,25.63
2022-11-27T12:06:56.198Z,26.47
2022-11-27T12:09:40.720Z,24.57
2022-11-27T12:12:22.846Z,28.43
2022-11-27T12:14:57.353Z,28.03
2022-11-27T12:17:42.192Z,27.20
2022-11-27T12:20:21.144Z,29.53
2022-11-27T12:23:40.215Z,23.30
2022-11-27T12:26:19.941Z,27.30
2022-11-27T12:29:03.833Z,29.50
2022-11-27T12:32:01.239Z,29.20
2022-11-27T12:34:41.137Z,25.20
2022-11-27T12:37:22.179Z,28.70
2022-11-27T12:40:03.861Z,24.57
2022-11-27T12:42:39.720Z,32.77
2022-11-27T12:45:18.577Z,31.97
2022-11-27T12:47:54.032Z,31.13
2022-11-27T12:50:27.367Z,31.67
2022-11-27T12:53:01.257Z,28.10
2022-11-27T12:55:32.228Z,31.70
2022-11-27T12:58:04.155Z,27.53
2022-11-27T13:00:37.909Z,31.83
2022-11-27T13:03:12.512Z,37.90
2022-11-27T13:05:45.080Z,31.83
2022-11-27T13:08:18.899Z,35.60
2022-11-27T13:10:53.018Z,30.13
2022-11-27T13:13:25.765Z,38.67
2022-11-27T13:15:58.905Z,34.13
2022-11-27T13:18:33.722Z,36.17
2022-11-27T13:21:06.215Z,30.57
2022-11-27T13:23:35.466Z,29.10
2022-11-27T13:26:07.164Z,29.63
2022-11-27T13:28:42.092Z,30.47
2022-11-27T13:31:20.214Z,33.17
2022-11-27T13:33:49.638Z,30.83
2022-11-27T13:36:24.538Z,30.30
2022-11-27T13:38:56.064Z,33.27
2022-11-27T13:41:34.189Z,34.20
2022-11-27T13:44:05.704Z,33.90
2022-11-27T13:46:48.471Z,35.67
2022-11-27T13:49:27.149Z,32.53
2022-11-27T13:52:06.295Z,39.03
2022-11-27T13:54:34.935Z,36.30
2022-11-27T13:57:14.214Z,32.80
2022-11-27T13:59:42.709Z,40.50
2022-11-27T14:02:12.157Z,33.33
2022-11-27T14:04:55.619Z,32.80
2022-11-27T14:07:25.266Z,33.53
2022-11-27T14:09:56.266Z,30.10
2022-11-27T14:12:26.699Z,33.53
2022-11-27T14:15:01.959Z,32.37
2022-11-27T14:17:38.533Z,43.40
2022-11-27T14:20:22.558Z,35.40
2022-11-27T14:23:12.224Z,35.97
2022-11-27T14:25:41.600Z,41.73
2022-11-27T14:28:16.106Z,35.93
2022-11-27T14:30:48.601Z,38.13
2022-11-27T14:33:23.910Z,35.37
2022-11-27T14:35:55.425Z,31.83
2022-11-27T14:38:25.063Z,35.87
2022-11-27T14:40:55.103Z,39.23
2022-11-27T14:43:26.054Z,38.23
2022-11-27T14:45:58.499Z,35.97
2022-11-27T14:48:33.272Z,33.70
2022-11-27T14:51:02.184Z,33.57
2022-11-27T14:53:30.591Z,41.10
2022-11-27T14:55:59.651Z,37.93
2022-11-27T14:58:29.646Z,43.07
2022-11-27T15:01:01.214Z,37.87
2022-11-27T15:03:31.609Z,34.63
2022-11-27T15:06:03.181Z,39.37
2022-11-27T15:08:35.287Z,40.20
2022-11-27T15:11:05.679Z,39.80
2022-11-27T15:13:35.847Z,42.70
2022-11-27T15:16:07.960Z,46.67
2022-11-27T15:18:39.643Z,40.50
2022-11-27T15:21:12.303Z,38.97
2022-11-27T15:23:46.286Z,39.90
2022-11-27T15:26:19.909Z,40.60
2022-11-27T15:28:57.136Z,43.60
2022-11-27T15:31:29.921Z,39.57
2022-11-27T15:34:02.494Z,38.07
2022-11-27T15:36:40.235Z,43.97
2022-11-27T15:39:19.118Z,44.93
2022-11-27T15:41:57.917Z,40.43
2022-11-27T15:44:27.452Z,41.17
2022-11-27T15:46:57.785Z,40.47
2022-11-27T15:49:27.458Z,42.80
2022-11-27T15:51:56.236Z,43.90
2022-11-27T15:54:24.885Z,46.03
2022-11-27T15:56:53.673Z,35.93
2022-11-27T15:59:21.782Z,47.17
2022-11-27T16:01:50.745Z,39.70
2022-11-27T16:04:19.160Z,56.57
2022-11-27T16:06:48.940Z,45.00
2022-11-27T16:09:17.592Z,41.87
2022-11-27T16:11:46.417Z,38.50
2022-11-27T16:14:14.726Z,48.13
2022-11-27T16:16:43.560Z,43.03
2022-11-27T16:19:12.357Z,42.80
2022-11-27T16:21:40.994Z,65.67
2022-11-27T16:24:13.820Z,55.00
2022-11-27T16:26:42.487Z,49.97
2022-11-27T16:29:11.485Z,47.37
2022-11-27T16:31:40.415Z,52.90
2022-11-27T16:34:08.846Z,42.37
2022-11-27T16:36:43.709Z,50.73
2022-11-27T16:39:13.516Z,49.70
2022-11-27T16:41:42.108Z,50.90
2022-11-27T16:44:12.074Z,42.30
2022-11-27T16:46:43.757Z,48.57
2022-11-27T16:49:13.039Z,49.67
2022-11-27T16:51:43.831Z,47.20
2022-11-27T16:54:14.908Z,53.43
2022-11-27T16:56:45.155Z,45.03
2022-11-27T16:59:15.672Z,46.93
2022-11-27T17:01:45.374Z,41.73
2022-11-27T17:04:18.339Z,47.60
2022-11-27T17:06:47.648Z,51.23
2022-11-27T17:09:17.247Z,50.60
2022-11-27T17:11:49.173Z,47.00
2022-11-27T17:14:19.569Z,51.93
2022-11-27T17:16:48.817Z,47.73
2022-11-27T17:19:18.417Z,48.27
2022-11-27T17:21:47.792Z,55.83
2022-11-27T17:24:17.986Z,50.13
2022-11-27T17:26:48.373Z,49.73
2022-11-27T17:29:18.440Z,49.70
2022-11-27T17:31:46.836Z,50.33
2022-11-27T17:34:16.164Z,46.70
2022-11-27T17:36:46.391Z,52.70
2022-11-27T17:39:17.469Z,54.13
2022-11-27T17:41:46.006Z,46.83
2022-11-27T17:44:14.430Z,52.30
2022-11-27T17:46:45.331Z,60.63
2022-11-27T17:49:14.286Z,48.33
2022-11-27T17:51:42.924Z,47.17
2022-11-27T17:54:15.285Z,53.77
2022-11-27T17:56:51.067Z,48.27
2022-11-27T17:59:20.227Z,52.93
2022-11-27T18:01:51.455Z,50.70
2022-11-27T18:04:20.462Z,59.60
2022-11-27T18:06:48.983Z,48.63
2022-11-27T18:09:17.190Z,48.47
2022-11-27T18:11:46.955Z,50.03
2022-11-27T18:14:15.313Z,53.50
2022-11-27T18:16:43.722Z,46.83
2022-11-27T18:19:12.628Z,46.47
2022-11-27T18:21:41.255Z,50.87
2022-11-27T18:24:25.493Z,54.60
2022-11-27T18:27:08.219Z,49.50
2022-11-27T18:29:37.989Z,46.77
2022-11-27T18:32:07.127Z,47.43
2022-11-27T18:34:35.691Z,44.13
2022-11-27T18:37:04.526Z,52.63
2022-11-27T18:39:33.277Z,48.63
2022-11-27T18:42:03.458Z,51.77
2022-11-27T18:44:32.083Z,64.77
2022-11-27T18:47:00.895Z,56.07
2022-11-27T18:49:29.416Z,54.03
2022-11-27T18:51:57.764Z,48.07
2022-11-27T18:54:26.000Z,53.23
2022-11-27T18:56:54.384Z,48.63
2022-11-27T18:59:25.453Z,52.53
2022-11-27T19:01:54.475Z,50.20
2022-11-27T19:04:22.743Z,48.10
2022-11-27T19:06:51.098Z,49.17
2022-11-27T19:09:22.280Z,47.20
2022-11-27T19:11:50.671Z,47.03
2022-11-27T19:14:19.589Z,48.63
2022-11-27T19:16:50.698Z,48.33
2022-11-27T19:22:10.842Z,51.13
2022-11-27T19:24:41.061Z,52.10
2022-11-27T19:27:09.664Z,48.93
2022-11-27T19:29:37.935Z,39.57
2022-11-27T19:32:07.955Z,55.10
2022-11-27T19:34:36.633Z,54.60
2022-11-27T19:37:05.001Z,43.17
2022-11-27T19:39:33.322Z,49.47
2022-11-27T19:42:01.804Z,45.70
2022-11-27T19:44:30.324Z,45.67
2022-11-27T19:46:58.844Z,49.30
2022-11-27T19:49:28.496Z,45.50
2022-11-27T19:51:57.207Z,41.17
2022-11-27T19:54:26.654Z,40.87
2022-11-27T19:56:55.786Z,48.83
2022-11-27T19:59:26.168Z,43.67
2022-11-27T20:01:56.416Z,47.60
2022-11-27T20:04:30.729Z,41.97
2022-11-27T20:06:59.175Z,41.03
2022-11-27T20:09:27.367Z,47.03
2022-11-27T20:11:57.256Z,42.73
2022-11-27T20:14:25.560Z,41.20
2022-11-27T20:16:55.249Z,39.43
2022-11-27T20:19:23.913Z,43.57
2022-11-27T20:21:53.667Z,43.67
2022-11-27T20:24:22.490Z,45.63
2022-11-27T20:26:51.169Z,40.13
2022-11-27T20:29:20.159Z,36.77
2022-11-27T20:31:49.224Z,44.80
2022-11-27T20:34:19.701Z,43.13
2022-11-27T20:36:49.841Z,38.73
2022-11-27T20:39:21.957Z,43.53
2022-11-27T20:41:53.380Z,46.60
2022-11-27T20:44:22.325Z,47.57
2022-11-27T20:46:51.308Z,50.27
2022-11-27T20:49:19.666Z,46.40
2022-11-27T20:51:50.460Z,42.90
2022-11-27T20:54:22.935Z,51.10
2022-11-27T20:56:51.789Z,41.83
2022-11-27T20:59:22.113Z,47.60
2022-11-27T21:01:51.611Z,46.97
2022-11-27T21:04:24.755Z,41.27
2022-11-27T21:06:54.816Z,40.33
2022-11-27T21:09:24.833Z,44.97
2022-11-27T21:11:53.993Z,44.40
2022-11-27T21:14:24.124Z,49.77
2022-11-27T21:16:53.813Z,47.53
2022-11-27T21:19:25.315Z,43.83
2022-11-27T21:21:57.149Z,47.60
2022-11-27T21:24:28.415Z,42.57
2022-11-27T21:27:00.420Z,47.40
2022-11-27T21:29:28.697Z,45.33
2022-11-27T21:31:59.400Z,48.07
2022-11-27T21:34:29.803Z,42.60
2022-11-27T21:36:58.254Z,48.30
2022-11-27T21:39:27.755Z,49.03
2022-11-27T21:41:57.102Z,47.50
2022-11-27T21:44:26.286Z,44.57
2022-11-27T21:46:55.315Z,42.87
2022-11-27T21:49:23.953Z,47.73
2022-11-27T21:51:53.905Z,38.27
2022-11-27T21:54:27.667Z,46.13
2022-11-27T21:56:57.503Z,50.13
2022-11-27T21:59:25.889Z,43.43
2022-11-27T22:01:57.094Z,46.27
2022-11-27T22:04:25.513Z,47.23
2022-11-27T22:06:54.445Z,39.73
2022-11-27T22:09:22.646Z,42.90
2022-11-27T22:11:53.716Z,44.07
2022-11-27T22:14:24.081Z,49.30
2022-11-27T22:16:52.936Z,54.73
2022-11-27T22:19:22.226Z,47.43
2022-11-27T22:21:51.021Z,54.37
2022-11-27T22:24:19.931Z,46.23
2022-11-27T22:26:54.148Z,57.80
2022-11-27T22:29:22.271Z,52.13
2022-11-27T22:31:52.707Z,56.50
2022-11-27T22:34:21.200Z,51.27
2022-11-27T22:36:50.093Z,56.23
2022-11-27T22:39:18.230Z,52.37
2022-11-27T22:41:47.479Z,53.97
2022-11-27T22:44:18.266Z,55.77
2022-11-27T22:46:46.760Z,55.03
2022-11-27T22:49:16.384Z,54.83
2022-11-27T22:51:45.711Z,55.33
2022-11-27T22:54:17.047Z,54.80
2022-11-27T22:56:46.720Z,52.47
2022-11-27T22:59:34.091Z,57.90
2022-11-27T23:02:05.767Z,58.37
2022-11-27T23:04:34.578Z,60.57
2022-11-27T23:07:04.072Z,57.97
2022-11-27T23:09:34.841Z,59.43
2022-11-27T23:12:03.267Z,70.37
2022-11-27T23:14:32.729Z,73.50
2022-11-27T23:17:01.071Z,72.37
2022-11-27T23:19:29.151Z,68.10
2022-11-27T23:21:57.442Z,62.30
2022-11-27T23:24:25.534Z,66.43
2022-11-27T23:26:54.175Z,70.33
2022-11-27T23:29:22.262Z,64.40
2022-11-27T23:31:52.138Z,63.70
2022-11-27T23:34:20.300Z,63.03
2022-11-27T23:36:48.800Z,67.30
2022-11-27T23:39:16.899Z,60.37
2022-11-27T23:41:46.258Z,63.40
2022-11-27T23:44:14.617Z,71.10
2022-11-27T23:46:42.859Z,63.43
2022-11-27T23:49:12.252Z,65.60
2022-11-27T23:51:40.752Z,65.83
2022-11-27T23:54:10.432Z,58.27
2022-11-27T23:56:40.767Z,65.37
2022-11-27T23:59:08.831Z,66.77
